sensor_id;sensor_type;location;lat;lon;timestamp;temperature;humidity
69589;SHT31;56792;50.644;17.984;2022-10-31T00:02:01;9.32;83.81
69589;SHT31;56792;50.644;17.984;2022-10-31T00:04:33;9.33;84.05
69589;SHT31;56792;50.644;17.984;2022-10-31T00:07:05;9.35;84.25
69589;SHT31;56792;50.644;17.984;2022-10-31T00:09:36;9.35;84.32
69589;SHT31;56792;50.644;17.984;2022-10-31T00:12:08;9.35;84.41
69589;SHT31;56792;50.644;17.984;2022-10-31T00:14:39;9.37;84.56
69589;SHT31;56792;50.644;17.984;2022-10-31T00:17:11;9.38;84.84
69589;SHT31;56792;50.644;17.984;2022-10-31T00:19:43;9.39;85.04
69589;SHT31;56792;50.644;17.984;2022-10-31T00:22:14;9.41;85.16
69589;SHT31;56792;50.644;17.984;2022-10-31T00:24:46;9.40;85.08
69589;SHT31;56792;50.644;17.984;2022-10-31T00:27:18;9.40;84.93
69589;SHT31;56792;50.644;17.984;2022-10-31T00:29:49;9.39;84.74
69589;SHT31;56792;50.644;17.984;2022-10-31T00:32:21;9.37;84.81
69589;SHT31;56792;50.644;17.984;2022-10-31T00:34:53;9.35;84.94
69589;SHT31;56792;50.644;17.984;2022-10-31T00:37:25;9.34;84.76
69589;SHT31;56792;50.644;17.984;2022-10-31T00:39:56;9.35;85.01
69589;SHT31;56792;50.644;17.984;2022-10-31T00:42:28;9.38;85.06
69589;SHT31;56792;50.644;17.984;2022-10-31T00:45:00;9.36;84.83
69589;SHT31;56792;50.644;17.984;2022-10-31T00:47:32;9.36;84.98
69589;SHT31;56792;50.644;17.984;2022-10-31T00:50:05;9.36;85.09
69589;SHT31;56792;50.644;17.984;2022-10-31T00:52:38;9.35;84.85
69589;SHT31;56792;50.644;17.984;2022-10-31T00:55:10;9.31;84.59
69589;SHT31;56792;50.644;17.984;2022-10-31T00:57:42;9.27;84.50
69589;SHT31;56792;50.644;17.984;2022-10-31T01:00:16;9.25;84.44
69589;SHT31;56792;50.644;17.984;2022-10-31T01:02:49;9.21;84.44
69589;SHT31;56792;50.644;17.984;2022-10-31T01:05:21;9.18;84.57
69589;SHT31;56792;50.644;17.984;2022-10-31T01:07:52;9.14;84.30
69589;SHT31;56792;50.644;17.984;2022-10-31T01:10:26;9.10;84.16
69589;SHT31;56792;50.644;17.984;2022-10-31T01:12:58;9.09;84.06
69589;SHT31;56792;50.644;17.984;2022-10-31T01:15:29;9.06;83.80
69589;SHT31;56792;50.644;17.984;2022-10-31T01:18:01;9.03;83.51
69589;SHT31;56792;50.644;17.984;2022-10-31T01:20:33;9.00;83.65
69589;SHT31;56792;50.644;17.984;2022-10-31T01:23:04;8.96;83.82
69589;SHT31;56792;50.644;17.984;2022-10-31T01:25:36;8.94;83.79
69589;SHT31;56792;50.644;17.984;2022-10-31T01:28:09;8.93;83.72
69589;SHT31;56792;50.644;17.984;2022-10-31T01:30:40;8.89;83.64
69589;SHT31;56792;50.644;17.984;2022-10-31T01:33:12;8.87;83.68
69589;SHT31;56792;50.644;17.984;2022-10-31T01:35:44;8.83;83.62
69589;SHT31;56792;50.644;17.984;2022-10-31T01:38:16;8.79;83.51
69589;SHT31;56792;50.644;17.984;2022-10-31T01:40:47;8.76;83.33
69589;SHT31;56792;50.644;17.984;2022-10-31T01:43:19;8.72;83.37
69589;SHT31;56792;50.644;17.984;2022-10-31T01:45:52;8.69;83.48
69589;SHT31;56792;50.644;17.984;2022-10-31T01:48:24;8.66;83.44
69589;SHT31;56792;50.644;17.984;2022-10-31T01:50:59;8.65;83.45
69589;SHT31;56792;50.644;17.984;2022-10-31T01:53:32;8.65;83.23
69589;SHT31;56792;50.644;17.984;2022-10-31T01:56:06;8.60;83.29
69589;SHT31;56792;50.644;17.984;2022-10-31T01:58:39;8.57;83.33
69589;SHT31;56792;50.644;17.984;2022-10-31T02:01:16;8.53;83.37
69589;SHT31;56792;50.644;17.984;2022-10-31T02:03:48;8.50;83.73
69589;SHT31;56792;50.644;17.984;2022-10-31T02:06:25;8.47;83.75
69589;SHT31;56792;50.644;17.984;2022-10-31T02:09:05;8.44;83.63
69589;SHT31;56792;50.644;17.984;2022-10-31T02:11:37;8.44;83.52
69589;SHT31;56792;50.644;17.984;2022-10-31T02:14:11;8.40;83.65
69589;SHT31;56792;50.644;17.984;2022-10-31T02:16:45;8.35;83.76
69589;SHT31;56792;50.644;17.984;2022-10-31T02:19:18;8.35;83.66
69589;SHT31;56792;50.644;17.984;2022-10-31T02:22:02;8.34;83.55
69589;SHT31;56792;50.644;17.984;2022-10-31T02:24:46;8.32;83.65
69589;SHT31;56792;50.644;17.984;2022-10-31T02:27:43;8.31;83.79
69589;SHT31;56792;50.644;17.984;2022-10-31T02:33:52;8.28;84.20
69589;SHT31;56792;50.644;17.984;2022-10-31T02:36:32;8.26;84.35
69589;SHT31;56792;50.644;17.984;2022-10-31T02:39:16;8.26;84.44
69589;SHT31;56792;50.644;17.984;2022-10-31T02:41:58;8.23;84.44
69589;SHT31;56792;50.644;17.984;2022-10-31T02:44:38;8.20;84.36
69589;SHT31;56792;50.644;17.984;2022-10-31T02:47:18;8.18;84.32
69589;SHT31;56792;50.644;17.984;2022-10-31T02:49:56;8.15;84.28
69589;SHT31;56792;50.644;17.984;2022-10-31T02:52:32;8.12;84.36
69589;SHT31;56792;50.644;17.984;2022-10-31T02:55:39;8.08;84.22
69589;SHT31;56792;50.644;17.984;2022-10-31T02:58:25;8.05;84.24
69589;SHT31;56792;50.644;17.984;2022-10-31T03:01:10;8.07;84.30
69589;SHT31;56792;50.644;17.984;2022-10-31T03:07:25;8.02;84.12
69589;SHT31;56792;50.644;17.984;2022-10-31T03:10:13;7.99;84.19
69589;SHT31;56792;50.644;17.984;2022-10-31T03:12:58;7.95;84.06
69589;SHT31;56792;50.644;17.984;2022-10-31T03:15:41;7.94;83.99
69589;SHT31;56792;50.644;17.984;2022-10-31T03:18:18;7.92;83.91
69589;SHT31;56792;50.644;17.984;2022-10-31T03:21:01;7.90;83.82
69589;SHT31;56792;50.644;17.984;2022-10-31T03:23:40;7.87;83.82
69589;SHT31;56792;50.644;17.984;2022-10-31T03:26:19;7.85;83.90
69589;SHT31;56792;50.644;17.984;2022-10-31T03:28:54;7.84;84.01
69589;SHT31;56792;50.644;17.984;2022-10-31T03:31:33;7.86;84.11
69589;SHT31;56792;50.644;17.984;2022-10-31T03:34:13;7.85;83.94
69589;SHT31;56792;50.644;17.984;2022-10-31T03:36:49;7.82;83.85
69589;SHT31;56792;50.644;17.984;2022-10-31T03:39:28;7.80;83.92
69589;SHT31;56792;50.644;17.984;2022-10-31T03:42:04;7.80;83.95
69589;SHT31;56792;50.644;17.984;2022-10-31T03:44:42;7.77;83.77
69589;SHT31;56792;50.644;17.984;2022-10-31T03:47:21;7.76;83.82
69589;SHT31;56792;50.644;17.984;2022-10-31T03:49:54;7.76;83.87
69589;SHT31;56792;50.644;17.984;2022-10-31T03:52:28;7.74;83.92
69589;SHT31;56792;50.644;17.984;2022-10-31T03:55:09;7.72;83.97
69589;SHT31;56792;50.644;17.984;2022-10-31T03:57:48;7.71;84.06
69589;SHT31;56792;50.644;17.984;2022-10-31T04:00:31;7.68;84.00
69589;SHT31;56792;50.644;17.984;2022-10-31T04:03:07;7.64;83.90
69589;SHT31;56792;50.644;17.984;2022-10-31T04:05:46;7.63;83.83
69589;SHT31;56792;50.644;17.984;2022-10-31T04:08:22;7.64;84.03
69589;SHT31;56792;50.644;17.984;2022-10-31T04:10:59;7.62;84.13
69589;SHT31;56792;50.644;17.984;2022-10-31T04:13:39;7.63;84.25
69589;SHT31;56792;50.644;17.984;2022-10-31T04:16:19;7.61;84.10
69589;SHT31;56792;50.644;17.984;2022-10-31T04:18:53;7.59;84.20
69589;SHT31;56792;50.644;17.984;2022-10-31T04:21:28;7.60;84.45
69589;SHT31;56792;50.644;17.984;2022-10-31T04:24:00;7.62;84.67
69589;SHT31;56792;50.644;17.984;2022-10-31T04:26:33;7.63;85.18
69589;SHT31;56792;50.644;17.984;2022-10-31T04:29:05;7.66;85.30
69589;SHT31;56792;50.644;17.984;2022-10-31T04:31:38;7.66;85.25
69589;SHT31;56792;50.644;17.984;2022-10-31T04:34:10;7.66;85.43
69589;SHT31;56792;50.644;17.984;2022-10-31T04:36:42;7.68;85.60
69589;SHT31;56792;50.644;17.984;2022-10-31T04:39:15;7.70;85.62
69589;SHT31;56792;50.644;17.984;2022-10-31T04:41:55;7.69;85.62
69589;SHT31;56792;50.644;17.984;2022-10-31T04:44:27;7.69;85.75
69589;SHT31;56792;50.644;17.984;2022-10-31T04:47:00;7.68;85.88
69589;SHT31;56792;50.644;17.984;2022-10-31T04:49:32;7.68;85.93
69589;SHT31;56792;50.644;17.984;2022-10-31T04:52:05;7.66;85.84
69589;SHT31;56792;50.644;17.984;2022-10-31T04:54:37;7.66;85.80
69589;SHT31;56792;50.644;17.984;2022-10-31T04:57:41;7.67;85.83
69589;SHT31;56792;50.644;17.984;2022-10-31T05:00:15;7.67;85.76
69589;SHT31;56792;50.644;17.984;2022-10-31T05:02:50;7.64;85.57
69589;SHT31;56792;50.644;17.984;2022-10-31T05:05:26;7.65;85.80
69589;SHT31;56792;50.644;17.984;2022-10-31T05:08:01;7.68;86.19
69589;SHT31;56792;50.644;17.984;2022-10-31T05:10:33;7.71;86.51
69589;SHT31;56792;50.644;17.984;2022-10-31T05:13:05;7.74;86.71
69589;SHT31;56792;50.644;17.984;2022-10-31T05:15:50;7.78;86.92
69589;SHT31;56792;50.644;17.984;2022-10-31T05:18:42;7.80;86.94
69589;SHT31;56792;50.644;17.984;2022-10-31T05:21:32;7.80;86.78
69589;SHT31;56792;50.644;17.984;2022-10-31T05:24:04;7.79;86.70
69589;SHT31;56792;50.644;17.984;2022-10-31T05:26:38;7.80;86.79
69589;SHT31;56792;50.644;17.984;2022-10-31T05:29:10;7.81;86.71
69589;SHT31;56792;50.644;17.984;2022-10-31T05:31:42;7.82;86.65
69589;SHT31;56792;50.644;17.984;2022-10-31T05:34:32;7.82;86.63
69589;SHT31;56792;50.644;17.984;2022-10-31T05:37:34;7.83;86.65
69589;SHT31;56792;50.644;17.984;2022-10-31T05:40:08;7.83;86.85
69589;SHT31;56792;50.644;17.984;2022-10-31T05:42:43;7.83;86.97
69589;SHT31;56792;50.644;17.984;2022-10-31T05:45:17;7.83;86.91
69589;SHT31;56792;50.644;17.984;2022-10-31T05:47:58;7.83;86.73
69589;SHT31;56792;50.644;17.984;2022-10-31T05:50:49;7.83;86.77
69589;SHT31;56792;50.644;17.984;2022-10-31T05:53:21;7.83;86.75
69589;SHT31;56792;50.644;17.984;2022-10-31T05:55:55;7.86;86.87
69589;SHT31;56792;50.644;17.984;2022-10-31T05:58:30;7.90;87.03
69589;SHT31;56792;50.644;17.984;2022-10-31T06:01:05;7.92;87.00
69589;SHT31;56792;50.644;17.984;2022-10-31T06:03:38;7.95;86.97
69589;SHT31;56792;50.644;17.984;2022-10-31T06:06:10;7.98;86.89
69589;SHT31;56792;50.644;17.984;2022-10-31T06:08:46;8.01;86.79
69589;SHT31;56792;50.644;17.984;2022-10-31T06:11:20;8.03;86.70
69589;SHT31;56792;50.644;17.984;2022-10-31T06:14:02;8.08;86.75
69589;SHT31;56792;50.644;17.984;2022-10-31T06:16:41;8.10;86.82
69589;SHT31;56792;50.644;17.984;2022-10-31T06:19:34;8.15;86.91
69589;SHT31;56792;50.644;17.984;2022-10-31T06:22:08;8.19;86.88
69589;SHT31;56792;50.644;17.984;2022-10-31T06:24:41;8.22;86.86
69589;SHT31;56792;50.644;17.984;2022-10-31T06:27:29;8.26;86.89
69589;SHT31;56792;50.644;17.984;2022-10-31T06:30:08;8.32;86.98
69589;SHT31;56792;50.644;17.984;2022-10-31T06:32:45;8.37;87.04
69589;SHT31;56792;50.644;17.984;2022-10-31T06:35:20;8.43;87.10
69589;SHT31;56792;50.644;17.984;2022-10-31T06:37:53;8.48;87.15
69589;SHT31;56792;50.644;17.984;2022-10-31T06:40:36;8.54;87.20
69589;SHT31;56792;50.644;17.984;2022-10-31T06:43:18;8.60;87.28
69589;SHT31;56792;50.644;17.984;2022-10-31T06:46:01;8.65;87.29
69589;SHT31;56792;50.644;17.984;2022-10-31T06:48:41;8.70;87.24
69589;SHT31;56792;50.644;17.984;2022-10-31T06:51:19;8.77;87.20
69589;SHT31;56792;50.644;17.984;2022-10-31T06:53:52;8.83;87.19
69589;SHT31;56792;50.644;17.984;2022-10-31T06:56:26;8.90;87.20
69589;SHT31;56792;50.644;17.984;2022-10-31T06:58:59;8.98;87.23
69589;SHT31;56792;50.644;17.984;2022-10-31T07:01:55;9.08;87.40
69589;SHT31;56792;50.644;17.984;2022-10-31T07:04:29;9.18;87.48
69589;SHT31;56792;50.644;17.984;2022-10-31T07:07:04;9.31;87.60
69589;SHT31;56792;50.644;17.984;2022-10-31T07:09:36;9.51;87.63
69589;SHT31;56792;50.644;17.984;2022-10-31T07:12:10;9.78;87.54
69589;SHT31;56792;50.644;17.984;2022-10-31T07:14:48;10.09;87.28
69589;SHT31;56792;50.644;17.984;2022-10-31T07:17:20;10.39;86.93
69589;SHT31;56792;50.644;17.984;2022-10-31T07:19:55;10.70;86.50
69589;SHT31;56792;50.644;17.984;2022-10-31T07:22:33;10.98;86.09
69589;SHT31;56792;50.644;17.984;2022-10-31T07:25:08;11.29;85.68
69589;SHT31;56792;50.644;17.984;2022-10-31T07:28:00;11.59;85.16
69589;SHT31;56792;50.644;17.984;2022-10-31T07:30:33;11.86;84.76
69589;SHT31;56792;50.644;17.984;2022-10-31T07:33:06;12.09;84.34
69589;SHT31;56792;50.644;17.984;2022-10-31T07:36:01;12.36;84.04
69589;SHT31;56792;50.644;17.984;2022-10-31T07:38:35;12.60;83.42
69589;SHT31;56792;50.644;17.984;2022-10-31T07:41:07;12.81;82.90
69589;SHT31;56792;50.644;17.984;2022-10-31T07:43:42;13.02;82.47
69589;SHT31;56792;50.644;17.984;2022-10-31T07:46:16;13.23;82.02
69589;SHT31;56792;50.644;17.984;2022-10-31T07:49:08;13.47;81.45
69589;SHT31;56792;50.644;17.984;2022-10-31T07:51:59;13.71;80.73
69589;SHT31;56792;50.644;17.984;2022-10-31T07:54:47;13.97;80.02
69589;SHT31;56792;50.644;17.984;2022-10-31T07:57:23;14.24;79.74
69589;SHT31;56792;50.644;17.984;2022-10-31T07:59:55;14.54;78.91
69589;SHT31;56792;50.644;17.984;2022-10-31T08:02:30;14.78;78.13
69589;SHT31;56792;50.644;17.984;2022-10-31T08:05:23;15.06;77.04
69589;SHT31;56792;50.644;17.984;2022-10-31T08:08:24;15.36;76.50
69589;SHT31;56792;50.644;17.984;2022-10-31T08:10:57;15.67;75.83
69589;SHT31;56792;50.644;17.984;2022-10-31T08:13:30;15.98;74.92
69589;SHT31;56792;50.644;17.984;2022-10-31T08:16:04;16.20;74.24
69589;SHT31;56792;50.644;17.984;2022-10-31T08:18:43;16.44;73.49
69589;SHT31;56792;50.644;17.984;2022-10-31T08:21:16;16.57;72.48
69589;SHT31;56792;50.644;17.984;2022-10-31T08:23:48;16.65;71.44
69589;SHT31;56792;50.644;17.984;2022-10-31T08:26:25;16.64;71.13
69589;SHT31;56792;50.644;17.984;2022-10-31T08:28:58;16.78;70.87
69589;SHT31;56792;50.644;17.984;2022-10-31T08:31:34;16.96;70.25
69589;SHT31;56792;50.644;17.984;2022-10-31T08:34:28;17.14;69.18
69589;SHT31;56792;50.644;17.984;2022-10-31T08:37:18;17.26;69.03
69589;SHT31;56792;50.644;17.984;2022-10-31T08:39:53;17.45;68.75
69589;SHT31;56792;50.644;17.984;2022-10-31T08:42:26;17.55;68.27
69589;SHT31;56792;50.644;17.984;2022-10-31T08:44:58;17.83;68.15
69589;SHT31;56792;50.644;17.984;2022-10-31T08:47:31;18.17;67.50
69589;SHT31;56792;50.644;17.984;2022-10-31T08:50:05;18.44;67.03
69589;SHT31;56792;50.644;17.984;2022-10-31T08:52:37;18.68;66.39
69589;SHT31;56792;50.644;17.984;2022-10-31T08:55:10;18.84;65.41
69589;SHT31;56792;50.644;17.984;2022-10-31T08:58:02;19.12;65.25
69589;SHT31;56792;50.644;17.984;2022-10-31T09:00:42;19.37;64.23
69589;SHT31;56792;50.644;17.984;2022-10-31T09:03:20;19.57;63.44
69589;SHT31;56792;50.644;17.984;2022-10-31T09:06:03;19.79;63.46
69589;SHT31;56792;50.644;17.984;2022-10-31T09:08:40;20.15;63.16
69589;SHT31;56792;50.644;17.984;2022-10-31T09:11:12;20.40;62.17
69589;SHT31;56792;50.644;17.984;2022-10-31T09:14:07;20.82;61.88
69589;SHT31;56792;50.644;17.984;2022-10-31T09:16:39;21.31;60.75
69589;SHT31;56792;50.644;17.984;2022-10-31T09:19:17;21.84;58.88
69589;SHT31;56792;50.644;17.984;2022-10-31T09:21:51;22.15;57.79
69589;SHT31;56792;50.644;17.984;2022-10-31T09:24:23;22.56;57.05
69589;SHT31;56792;50.644;17.984;2022-10-31T09:26:55;23.20;55.41
69589;SHT31;56792;50.644;17.984;2022-10-31T09:29:28;24.19;54.10
69589;SHT31;56792;50.644;17.984;2022-10-31T09:32:00;25.48;51.68
69589;SHT31;56792;50.644;17.984;2022-10-31T09:34:38;26.72;49.40
69589;SHT31;56792;50.644;17.984;2022-10-31T09:37:12;27.58;46.70
69589;SHT31;56792;50.644;17.984;2022-10-31T09:39:44;28.21;45.38
69589;SHT31;56792;50.644;17.984;2022-10-31T09:42:37;28.83;44.22
69589;SHT31;56792;50.644;17.984;2022-10-31T09:45:25;29.78;42.73
69589;SHT31;56792;50.644;17.984;2022-10-31T09:48:24;30.46;40.85
69589;SHT31;56792;50.644;17.984;2022-10-31T09:51:17;31.30;40.07
69589;SHT31;56792;50.644;17.984;2022-10-31T09:54:10;32.01;38.26
69589;SHT31;56792;50.644;17.984;2022-10-31T09:56:48;32.19;37.83
69589;SHT31;56792;50.644;17.984;2022-10-31T09:59:24;32.76;37.65
69589;SHT31;56792;50.644;17.984;2022-10-31T10:02:02;33.39;36.17
69589;SHT31;56792;50.644;17.984;2022-10-31T10:04:48;33.83;35.45
69589;SHT31;56792;50.644;17.984;2022-10-31T10:07:30;34.48;34.94
69589;SHT31;56792;50.644;17.984;2022-10-31T10:10:24;35.45;33.36
69589;SHT31;56792;50.644;17.984;2022-10-31T10:13:33;36.15;31.96
69589;SHT31;56792;50.644;17.984;2022-10-31T10:16:20;36.68;30.61
69589;SHT31;56792;50.644;17.984;2022-10-31T10:19:13;37.11;29.84
69589;SHT31;56792;50.644;17.984;2022-10-31T10:22:02;37.63;29.55
69589;SHT31;56792;50.644;17.984;2022-10-31T10:24:52;38.24;28.88
69589;SHT31;56792;50.644;17.984;2022-10-31T10:27:47;38.69;27.69
69589;SHT31;56792;50.644;17.984;2022-10-31T10:30:32;38.90;27.27
69589;SHT31;56792;50.644;17.984;2022-10-31T10:33:11;39.42;26.73
69589;SHT31;56792;50.644;17.984;2022-10-31T10:35:48;39.76;26.53
69589;SHT31;56792;50.644;17.984;2022-10-31T10:38:26;40.27;26.25
69589;SHT31;56792;50.644;17.984;2022-10-31T10:41:07;40.77;25.95
69589;SHT31;56792;50.644;17.984;2022-10-31T10:43:44;41.20;25.25
69589;SHT31;56792;50.644;17.984;2022-10-31T10:46:21;41.35;24.30
69589;SHT31;56792;50.644;17.984;2022-10-31T10:49:26;41.47;24.38
69589;SHT31;56792;50.644;17.984;2022-10-31T10:52:07;41.84;24.01
69589;SHT31;56792;50.644;17.984;2022-10-31T10:54:56;41.96;23.72
69589;SHT31;56792;50.644;17.984;2022-10-31T10:57:41;42.15;23.06
69589;SHT31;56792;50.644;17.984;2022-10-31T11:00:25;42.29;22.75
69589;SHT31;56792;50.644;17.984;2022-10-31T11:03:00;42.37;22.71
69589;SHT31;56792;50.644;17.984;2022-10-31T11:05:35;42.52;22.64
69589;SHT31;56792;50.644;17.984;2022-10-31T11:08:22;42.84;22.21
69589;SHT31;56792;50.644;17.984;2022-10-31T11:11:00;43.22;22.09
69589;SHT31;56792;50.644;17.984;2022-10-31T11:13:53;43.66;21.85
69589;SHT31;56792;50.644;17.984;2022-10-31T11:16:33;44.14;21.49
69589;SHT31;56792;50.644;17.984;2022-10-31T11:19:16;44.53;20.40
69589;SHT31;56792;50.644;17.984;2022-10-31T11:21:52;44.37;20.19
69589;SHT31;56792;50.644;17.984;2022-10-31T11:24:38;44.69;20.11
69589;SHT31;56792;50.644;17.984;2022-10-31T11:27:14;44.66;19.45
69589;SHT31;56792;50.644;17.984;2022-10-31T11:29:51;44.69;19.65
69589;SHT31;56792;50.644;17.984;2022-10-31T11:32:35;44.94;19.08
69589;SHT31;56792;50.644;17.984;2022-10-31T11:35:18;44.82;18.75
69589;SHT31;56792;50.644;17.984;2022-10-31T11:37:53;44.36;18.74
69589;SHT31;56792;50.644;17.984;2022-10-31T11:40:32;44.32;18.96
69589;SHT31;56792;50.644;17.984;2022-10-31T11:43:04;44.36;18.95
69589;SHT31;56792;50.644;17.984;2022-10-31T11:45:45;44.55;19.18
69589;SHT31;56792;50.644;17.984;2022-10-31T11:48:18;44.83;18.87
69589;SHT31;56792;50.644;17.984;2022-10-31T11:50:54;44.81;18.69
69589;SHT31;56792;50.644;17.984;2022-10-31T11:53:28;44.75;18.75
69589;SHT31;56792;50.644;17.984;2022-10-31T11:56:10;44.68;18.73
69589;SHT31;56792;50.644;17.984;2022-10-31T11:58:54;44.67;18.48
69589;SHT31;56792;50.644;17.984;2022-10-31T12:01:31;44.74;18.85
69589;SHT31;56792;50.644;17.984;2022-10-31T12:04:04;44.80;18.53
69589;SHT31;56792;50.644;17.984;2022-10-31T12:06:40;44.57;18.65
69589;SHT31;56792;50.644;17.984;2022-10-31T12:09:22;44.91;19.03
69589;SHT31;56792;50.644;17.984;2022-10-31T12:12:05;45.22;18.59
69589;SHT31;56792;50.644;17.984;2022-10-31T12:15:05;45.37;18.58
69589;SHT31;56792;50.644;17.984;2022-10-31T12:17:57;45.45;18.62
69589;SHT31;56792;50.644;17.984;2022-10-31T12:21:08;45.40;18.24
69589;SHT31;56792;50.644;17.984;2022-10-31T12:23:58;44.74;18.25
69589;SHT31;56792;50.644;17.984;2022-10-31T12:26:48;44.54;18.68
69589;SHT31;56792;50.644;17.984;2022-10-31T12:29:44;44.75;18.52
69589;SHT31;56792;50.644;17.984;2022-10-31T12:32:32;44.54;18.59
69589;SHT31;56792;50.644;17.984;2022-10-31T12:35:27;44.54;18.48
69589;SHT31;56792;50.644;17.984;2022-10-31T12:38:18;44.37;18.91
69589;SHT31;56792;50.644;17.984;2022-10-31T12:41:13;44.23;18.84
69589;SHT31;56792;50.644;17.984;2022-10-31T12:44:11;43.72;18.73
69589;SHT31;56792;50.644;17.984;2022-10-31T12:47:05;43.36;18.81
69589;SHT31;56792;50.644;17.984;2022-10-31T12:49:59;43.51;19.05
69589;SHT31;56792;50.644;17.984;2022-10-31T12:52:50;43.59;19.21
69589;SHT31;56792;50.644;17.984;2022-10-31T12:55:47;43.65;19.15
69589;SHT31;56792;50.644;17.984;2022-10-31T12:58:33;43.47;18.79
69589;SHT31;56792;50.644;17.984;2022-10-31T13:01:14;43.00;19.25
69589;SHT31;56792;50.644;17.984;2022-10-31T13:03:55;42.87;19.12
69589;SHT31;56792;50.644;17.984;2022-10-31T13:06:40;42.61;19.32
69589;SHT31;56792;50.644;17.984;2022-10-31T13:09:20;42.62;19.67
69589;SHT31;56792;50.644;17.984;2022-10-31T13:12:02;42.59;19.68
69589;SHT31;56792;50.644;17.984;2022-10-31T13:14:40;42.39;19.72
69589;SHT31;56792;50.644;17.984;2022-10-31T13:17:23;42.12;20.00
69589;SHT31;56792;50.644;17.984;2022-10-31T13:20:05;42.00;20.13
69589;SHT31;56792;50.644;17.984;2022-10-31T13:22:50;41.88;20.26
69589;SHT31;56792;50.644;17.984;2022-10-31T13:25:36;41.75;20.45
69589;SHT31;56792;50.644;17.984;2022-10-31T13:28:19;41.44;20.31
69589;SHT31;56792;50.644;17.984;2022-10-31T13:30:59;40.81;20.72
69589;SHT31;56792;50.644;17.984;2022-10-31T13:33:32;40.72;20.91
69589;SHT31;56792;50.644;17.984;2022-10-31T13:36:14;40.44;21.06
69589;SHT31;56792;50.644;17.984;2022-10-31T13:39:02;40.27;21.38
69589;SHT31;56792;50.644;17.984;2022-10-31T13:41:47;39.88;21.50
69589;SHT31;56792;50.644;17.984;2022-10-31T13:44:28;39.12;22.25
69589;SHT31;56792;50.644;17.984;2022-10-31T13:47:20;38.63;22.73
69589;SHT31;56792;50.644;17.984;2022-10-31T13:50:04;38.73;22.85
69589;SHT31;56792;50.644;17.984;2022-10-31T13:53:08;38.40;22.87
69589;SHT31;56792;50.644;17.984;2022-10-31T13:55:50;37.34;23.87
69589;SHT31;56792;50.644;17.984;2022-10-31T13:58:40;37.47;23.87
69589;SHT31;56792;50.644;17.984;2022-10-31T14:01:28;37.26;24.02
69589;SHT31;56792;50.644;17.984;2022-10-31T14:04:04;36.90;24.09
69589;SHT31;56792;50.644;17.984;2022-10-31T14:06:46;36.33;25.02
69589;SHT31;56792;50.644;17.984;2022-10-31T14:09:31;36.10;25.57
69589;SHT31;56792;50.644;17.984;2022-10-31T14:12:09;35.75;25.72
69589;SHT31;56792;50.644;17.984;2022-10-31T14:14:59;34.63;26.53
69589;SHT31;56792;50.644;17.984;2022-10-31T14:17:49;33.30;27.67
69589;SHT31;56792;50.644;17.984;2022-10-31T14:20:33;32.08;29.41
69589;SHT31;56792;50.644;17.984;2022-10-31T14:23:25;31.12;30.63
69589;SHT31;56792;50.644;17.984;2022-10-31T14:32:14;28.65;34.64
69589;SHT31;56792;50.644;17.984;2022-10-31T14:34:55;28.02;35.78
69589;SHT31;56792;50.644;17.984;2022-10-31T14:37:38;27.48;36.74
69589;SHT31;56792;50.644;17.984;2022-10-31T14:40:33;26.86;38.01
69589;SHT31;56792;50.644;17.984;2022-10-31T14:43:25;26.35;39.06
69589;SHT31;56792;50.644;17.984;2022-10-31T14:46:35;25.76;40.27
69589;SHT31;56792;50.644;17.984;2022-10-31T14:49:25;25.29;41.44
69589;SHT31;56792;50.644;17.984;2022-10-31T14:52:18;24.79;42.48
69589;SHT31;56792;50.644;17.984;2022-10-31T14:54:55;24.36;43.46
69589;SHT31;56792;50.644;17.984;2022-10-31T14:57:36;23.89;44.36
69589;SHT31;56792;50.644;17.984;2022-10-31T15:00:21;23.46;45.19
69589;SHT31;56792;50.644;17.984;2022-10-31T15:03:03;23.03;46.23
69589;SHT31;56792;50.644;17.984;2022-10-31T15:05:46;22.63;47.03
69589;SHT31;56792;50.644;17.984;2022-10-31T15:11:22;21.88;48.52
69589;SHT31;56792;50.644;17.984;2022-10-31T15:14:21;21.57;49.16
69589;SHT31;56792;50.644;17.984;2022-10-31T15:17:01;21.21;50.02
69589;SHT31;56792;50.644;17.984;2022-10-31T15:19:34;20.89;50.71
69589;SHT31;56792;50.644;17.984;2022-10-31T15:22:07;20.55;51.66
69589;SHT31;56792;50.644;17.984;2022-10-31T15:24:45;20.17;52.59
69589;SHT31;56792;50.644;17.984;2022-10-31T15:27:23;19.89;53.28
69589;SHT31;56792;50.644;17.984;2022-10-31T15:29:57;19.59;53.82
69589;SHT31;56792;50.644;17.984;2022-10-31T15:32:29;19.32;54.64
69589;SHT31;56792;50.644;17.984;2022-10-31T15:35:02;19.07;55.23
69589;SHT31;56792;50.644;17.984;2022-10-31T15:37:54;18.79;56.05
69589;SHT31;56792;50.644;17.984;2022-10-31T15:40:31;18.55;56.79
69589;SHT31;56792;50.644;17.984;2022-10-31T15:43:04;18.32;57.46
69589;SHT31;56792;50.644;17.984;2022-10-31T15:45:43;18.11;58.02
69589;SHT31;56792;50.644;17.984;2022-10-31T15:48:16;17.97;57.93
69589;SHT31;56792;50.644;17.984;2022-10-31T15:50:55;17.74;58.26
69589;SHT31;56792;50.644;17.984;2022-10-31T15:53:37;17.48;59.18
69589;SHT31;56792;50.644;17.984;2022-10-31T15:56:21;17.28;59.81
69589;SHT31;56792;50.644;17.984;2022-10-31T15:58:58;17.10;60.25
69589;SHT31;56792;50.644;17.984;2022-10-31T16:01:31;16.94;60.79
69589;SHT31;56792;50.644;17.984;2022-10-31T16:04:04;16.76;61.10
69589;SHT31;56792;50.644;17.984;2022-10-31T16:07:00;16.61;61.60
69589;SHT31;56792;50.644;17.984;2022-10-31T16:09:49;16.44;61.72
69589;SHT31;56792;50.644;17.984;2022-10-31T16:12:25;16.25;62.33
69589;SHT31;56792;50.644;17.984;2022-10-31T16:15:00;16.06;63.17
69589;SHT31;56792;50.644;17.984;2022-10-31T16:17:41;15.94;64.04
69589;SHT31;56792;50.644;17.984;2022-10-31T16:20:18;15.80;64.83
69589;SHT31;56792;50.644;17.984;2022-10-31T16:22:53;15.65;64.41
69589;SHT31;56792;50.644;17.984;2022-10-31T16:25:29;15.49;64.68
69589;SHT31;56792;50.644;17.984;2022-10-31T16:28:12;15.36;65.37
69589;SHT31;56792;50.644;17.984;2022-10-31T16:30:49;15.27;65.57
69589;SHT31;56792;50.644;17.984;2022-10-31T16:33:24;15.16;65.61
69589;SHT31;56792;50.644;17.984;2022-10-31T16:35:59;15.04;65.94
69589;SHT31;56792;50.644;17.984;2022-10-31T16:38:59;14.91;66.39
69589;SHT31;56792;50.644;17.984;2022-10-31T16:41:31;14.77;67.46
69589;SHT31;56792;50.644;17.984;2022-10-31T16:44:14;14.65;67.65
69589;SHT31;56792;50.644;17.984;2022-10-31T16:46:49;14.53;67.69
69589;SHT31;56792;50.644;17.984;2022-10-31T16:49:44;14.41;68.05
69589;SHT31;56792;50.644;17.984;2022-10-31T16:52:18;14.27;68.61
69589;SHT31;56792;50.644;17.984;2022-10-31T16:54:51;14.19;69.03
69589;SHT31;56792;50.644;17.984;2022-10-31T16:57:25;14.13;68.96